sensor_id;sensor_type;location;lat;lon;timestamp;temperature;humidity
18577;DHT22;9418;52.694;13.294;2023-05-27T00:01:34;8.30;99.90
18577;DHT22;9418;52.694;13.294;2023-05-27T00:04:01;8.40;99.90
18577;DHT22;9418;52.694;13.294;2023-05-27T00:06:27;8.10;99.90
18577;DHT22;9418;52.694;13.294;2023-05-27T00:08:54;8.20;99.90
18577;DHT22;9418;52.694;13.294;2023-05-27T00:11:22;8.20;99.90
18577;DHT22;9418;52.694;13.294;2023-05-27T00:13:48;8.00;99.90
18577;DHT22;9418;52.694;13.294;2023-05-27T00:16:15;8.00;99.90
18577;DHT22;9418;52.694;13.294;2023-05-27T00:18:42;8.00;99.90
18577;DHT22;9418;52.694;13.294;2023-05-27T00:21:09;8.00;99.90
18577;DHT22;9418;52.694;13.294;2023-05-27T00:23:36;8.00;99.90
18577;DHT22;9418;52.694;13.294;2023-05-27T00:26:02;7.90;99.90
18577;DHT22;9418;52.694;13.294;2023-05-27T00:28:30;7.80;99.90
18577;DHT22;9418;52.694;13.294;2023-05-27T00:30:57;7.80;99.90
18577;DHT22;9418;52.694;13.294;2023-05-27T00:33:24;7.70;99.90
18577;DHT22;9418;52.694;13.294;2023-05-27T00:35:50;7.60;99.90
18577;DHT22;9418;52.694;13.294;2023-05-27T00:38:17;7.50;99.90
18577;DHT22;9418;52.694;13.294;2023-05-27T00:40:43;7.60;99.90
18577;DHT22;9418;52.694;13.294;2023-05-27T00:43:10;7.40;99.90
18577;DHT22;9418;52.694;13.294;2023-05-27T00:45:38;7.50;99.90
18577;DHT22;9418;52.694;13.294;2023-05-27T00:48:05;7.70;99.90
18577;DHT22;9418;52.694;13.294;2023-05-27T00:50:32;7.60;99.90
18577;DHT22;9418;52.694;13.294;2023-05-27T00:52:58;7.50;99.90
18577;DHT22;9418;52.694;13.294;2023-05-27T00:55:25;7.40;99.90
18577;DHT22;9418;52.694;13.294;2023-05-27T00:57:52;7.30;99.90
18577;DHT22;9418;52.694;13.294;2023-05-27T01:00:20;7.20;99.90
18577;DHT22;9418;52.694;13.294;2023-05-27T01:02:48;7.30;99.90
18577;DHT22;9418;52.694;13.294;2023-05-27T01:05:16;7.30;99.90
18577;DHT22;9418;52.694;13.294;2023-05-27T01:07:53;7.30;99.90
18577;DHT22;9418;52.694;13.294;2023-05-27T01:10:26;7.30;99.90
18577;DHT22;9418;52.694;13.294;2023-05-27T01:12:59;7.30;99.90
18577;DHT22;9418;52.694;13.294;2023-05-27T01:15:27;7.30;99.90
18577;DHT22;9418;52.694;13.294;2023-05-27T01:17:59;7.30;99.90
18577;DHT22;9418;52.694;13.294;2023-05-27T01:20:28;7.30;99.90
18577;DHT22;9418;52.694;13.294;2023-05-27T01:22:57;7.20;99.90
18577;DHT22;9418;52.694;13.294;2023-05-27T01:25:25;7.20;99.90
18577;DHT22;9418;52.694;13.294;2023-05-27T01:27:51;7.20;99.90
18577;DHT22;9418;52.694;13.294;2023-05-27T01:30:18;7.20;99.90
18577;DHT22;9418;52.694;13.294;2023-05-27T01:32:49;7.20;99.90
18577;DHT22;9418;52.694;13.294;2023-05-27T01:35:24;7.30;99.90
18577;DHT22;9418;52.694;13.294;2023-05-27T01:37:52;7.20;99.90
18577;DHT22;9418;52.694;13.294;2023-05-27T01:40:21;7.00;99.90
18577;DHT22;9418;52.694;13.294;2023-05-27T01:42:48;7.00;99.90
18577;DHT22;9418;52.694;13.294;2023-05-27T01:45:15;7.10;99.90
18577;DHT22;9418;52.694;13.294;2023-05-27T01:47:42;7.00;99.90
18577;DHT22;9418;52.694;13.294;2023-05-27T01:50:09;7.00;99.90
18577;DHT22;9418;52.694;13.294;2023-05-27T01:52:36;7.00;99.90
18577;DHT22;9418;52.694;13.294;2023-05-27T01:55:03;6.90;99.90
18577;DHT22;9418;52.694;13.294;2023-05-27T01:57:32;6.70;99.90
18577;DHT22;9418;52.694;13.294;2023-05-27T01:59:59;6.70;99.90
18577;DHT22;9418;52.694;13.294;2023-05-27T02:02:26;6.60;99.90
18577;DHT22;9418;52.694;13.294;2023-05-27T02:04:52;6.70;99.90
18577;DHT22;9418;52.694;13.294;2023-05-27T02:07:19;6.60;99.90
18577;DHT22;9418;52.694;13.294;2023-05-27T02:09:45;6.60;99.90
18577;DHT22;9418;52.694;13.294;2023-05-27T02:12:12;6.70;99.90
18577;DHT22;9418;52.694;13.294;2023-05-27T02:14:40;6.80;99.90
18577;DHT22;9418;52.694;13.294;2023-05-27T02:17:07;6.70;99.90
18577;DHT22;9418;52.694;13.294;2023-05-27T02:19:33;6.70;99.90
18577;DHT22;9418;52.694;13.294;2023-05-27T02:22:00;6.50;99.90
18577;DHT22;9418;52.694;13.294;2023-05-27T02:24:27;6.50;99.90
18577;DHT22;9418;52.694;13.294;2023-05-27T02:26:53;6.50;99.90
18577;DHT22;9418;52.694;13.294;2023-05-27T02:29:20;6.50;99.90
18577;DHT22;9418;52.694;13.294;2023-05-27T02:31:48;6.40;99.90
18577;DHT22;9418;52.694;13.294;2023-05-27T02:34:14;6.50;99.90
18577;DHT22;9418;52.694;13.294;2023-05-27T02:36:41;6.40;99.90
18577;DHT22;9418;52.694;13.294;2023-05-27T02:39:08;6.30;99.90
18577;DHT22;9418;52.694;13.294;2023-05-27T02:41:35;6.40;99.90
18577;DHT22;9418;52.694;13.294;2023-05-27T02:44:02;6.50;99.90
18577;DHT22;9418;52.694;13.294;2023-05-27T02:46:29;6.40;99.90
18577;DHT22;9418;52.694;13.294;2023-05-27T02:48:56;6.30;99.90
18577;DHT22;9418;52.694;13.294;2023-05-27T02:51:23;6.20;99.90
18577;DHT22;9418;52.694;13.294;2023-05-27T02:53:50;6.20;99.90
18577;DHT22;9418;52.694;13.294;2023-05-27T02:56:17;6.20;99.90
18577;DHT22;9418;52.694;13.294;2023-05-27T02:58:43;6.20;99.90
18577;DHT22;9418;52.694;13.294;2023-05-27T03:01:10;6.10;99.90
18577;DHT22;9418;52.694;13.294;2023-05-27T03:03:37;6.00;99.90
18577;DHT22;9418;52.694;13.294;2023-05-27T03:06:05;6.10;99.90
18577;DHT22;9418;52.694;13.294;2023-05-27T03:08:31;6.10;99.90
18577;DHT22;9418;52.694;13.294;2023-05-27T03:10:58;6.20;99.90
18577;DHT22;9418;52.694;13.294;2023-05-27T03:13:25;6.10;99.90
18577;DHT22;9418;52.694;13.294;2023-05-27T03:15:51;6.10;99.90
18577;DHT22;9418;52.694;13.294;2023-05-27T03:18:19;6.00;99.90
18577;DHT22;9418;52.694;13.294;2023-05-27T03:20:46;6.00;99.90
18577;DHT22;9418;52.694;13.294;2023-05-27T03:23:14;6.00;99.90
18577;DHT22;9418;52.694;13.294;2023-05-27T03:25:41;6.00;99.90
18577;DHT22;9418;52.694;13.294;2023-05-27T03:28:08;6.00;99.90
18577;DHT22;9418;52.694;13.294;2023-05-27T03:30:34;6.00;99.90
18577;DHT22;9418;52.694;13.294;2023-05-27T03:33:02;6.10;99.90
18577;DHT22;9418;52.694;13.294;2023-05-27T03:35:29;6.20;99.90
18577;DHT22;9418;52.694;13.294;2023-05-27T03:37:55;6.10;99.90
18577;DHT22;9418;52.694;13.294;2023-05-27T03:40:23;6.10;99.90
18577;DHT22;9418;52.694;13.294;2023-05-27T03:42:50;6.20;99.90
18577;DHT22;9418;52.694;13.294;2023-05-27T03:45:18;6.20;99.90
18577;DHT22;9418;52.694;13.294;2023-05-27T03:47:45;6.20;99.90
18577;DHT22;9418;52.694;13.294;2023-05-27T03:50:11;6.20;99.90
18577;DHT22;9418;52.694;13.294;2023-05-27T03:52:38;6.30;99.90
18577;DHT22;9418;52.694;13.294;2023-05-27T03:55:05;6.20;99.90
18577;DHT22;9418;52.694;13.294;2023-05-27T03:57:33;6.30;99.90
18577;DHT22;9418;52.694;13.294;2023-05-27T04:00:00;6.20;99.90
18577;DHT22;9418;52.694;13.294;2023-05-27T04:02:26;6.30;99.90
18577;DHT22;9418;52.694;13.294;2023-05-27T04:04:53;6.30;99.90
18577;DHT22;9418;52.694;13.294;2023-05-27T04:07:20;6.40;99.90
18577;DHT22;9418;52.694;13.294;2023-05-27T04:09:52;6.40;99.90
18577;DHT22;9418;52.694;13.294;2023-05-27T04:12:18;6.50;99.90
18577;DHT22;9418;52.694;13.294;2023-05-27T04:14:47;6.60;99.90
18577;DHT22;9418;52.694;13.294;2023-05-27T04:17:13;6.60;99.90
18577;DHT22;9418;52.694;13.294;2023-05-27T04:19:40;6.70;99.90
18577;DHT22;9418;52.694;13.294;2023-05-27T04:22:07;6.80;99.90
18577;DHT22;9418;52.694;13.294;2023-05-27T04:24:33;6.80;99.90
18577;DHT22;9418;52.694;13.294;2023-05-27T04:27:00;6.90;99.90
18577;DHT22;9418;52.694;13.294;2023-05-27T04:29:27;7.10;99.90
18577;DHT22;9418;52.694;13.294;2023-05-27T04:31:58;7.20;99.90
18577;DHT22;9418;52.694;13.294;2023-05-27T04:34:26;7.20;99.90
18577;DHT22;9418;52.694;13.294;2023-05-27T04:36:52;7.30;99.90
18577;DHT22;9418;52.694;13.294;2023-05-27T04:39:19;7.40;99.90
18577;DHT22;9418;52.694;13.294;2023-05-27T04:41:46;7.50;99.90
18577;DHT22;9418;52.694;13.294;2023-05-27T04:44:12;7.60;99.90
18577;DHT22;9418;52.694;13.294;2023-05-27T04:46:39;7.70;99.90
18577;DHT22;9418;52.694;13.294;2023-05-27T04:49:07;7.80;99.90
18577;DHT22;9418;52.694;13.294;2023-05-27T04:51:34;7.90;99.90
18577;DHT22;9418;52.694;13.294;2023-05-27T04:54:02;8.00;99.90
18577;DHT22;9418;52.694;13.294;2023-05-27T04:56:31;8.00;99.90
18577;DHT22;9418;52.694;13.294;2023-05-27T04:58:57;8.20;99.90
18577;DHT22;9418;52.694;13.294;2023-05-27T05:01:25;8.30;99.90
18577;DHT22;9418;52.694;13.294;2023-05-27T05:03:52;8.40;99.90
18577;DHT22;9418;52.694;13.294;2023-05-27T05:06:38;8.50;99.90
18577;DHT22;9418;52.694;13.294;2023-05-27T05:09:05;8.60;99.90
18577;DHT22;9418;52.694;13.294;2023-05-27T05:11:32;8.80;99.90
18577;DHT22;9418;52.694;13.294;2023-05-27T05:13:59;8.80;99.90
18577;DHT22;9418;52.694;13.294;2023-05-27T05:16:26;8.90;99.90
18577;DHT22;9418;52.694;13.294;2023-05-27T05:18:52;9.10;99.90
18577;DHT22;9418;52.694;13.294;2023-05-27T05:21:19;9.20;99.90
18577;DHT22;9418;52.694;13.294;2023-05-27T05:23:47;9.30;99.90
18577;DHT22;9418;52.694;13.294;2023-05-27T05:26:13;9.50;99.90
18577;DHT22;9418;52.694;13.294;2023-05-27T05:28:40;9.60;99.90
18577;DHT22;9418;52.694;13.294;2023-05-27T05:31:07;9.70;99.90
18577;DHT22;9418;52.694;13.294;2023-05-27T05:33:33;9.80;99.90
18577;DHT22;9418;52.694;13.294;2023-05-27T05:36:01;9.90;99.90
18577;DHT22;9418;52.694;13.294;2023-05-27T05:38:27;10.10;99.90
18577;DHT22;9418;52.694;13.294;2023-05-27T05:40:56;10.20;99.90
18577;DHT22;9418;52.694;13.294;2023-05-27T05:43:23;10.30;99.90
18577;DHT22;9418;52.694;13.294;2023-05-27T05:45:51;10.30;99.90
18577;DHT22;9418;52.694;13.294;2023-05-27T05:48:18;10.40;99.90
18577;DHT22;9418;52.694;13.294;2023-05-27T05:50:44;10.50;99.90
18577;DHT22;9418;52.694;13.294;2023-05-27T05:53:11;10.70;99.90
18577;DHT22;9418;52.694;13.294;2023-05-27T05:55:38;10.80;99.90
18577;DHT22;9418;52.694;13.294;2023-05-27T05:58:06;10.90;99.90
18577;DHT22;9418;52.694;13.294;2023-05-27T06:00:32;11.00;99.90
18577;DHT22;9418;52.694;13.294;2023-05-27T06:02:59;11.10;99.90
18577;DHT22;9418;52.694;13.294;2023-05-27T06:05:25;11.30;99.90
18577;DHT22;9418;52.694;13.294;2023-05-27T06:07:52;11.40;99.90
18577;DHT22;9418;52.694;13.294;2023-05-27T06:10:19;11.50;99.90
18577;DHT22;9418;52.694;13.294;2023-05-27T06:12:46;11.70;35.20
18577;DHT22;9418;52.694;13.294;2023-05-27T06:15:14;11.70;51.30
18577;DHT22;9418;52.694;13.294;2023-05-27T06:17:41;11.80;53.00
18577;DHT22;9418;52.694;13.294;2023-05-27T06:20:08;11.90;83.30
18577;DHT22;9418;52.694;13.294;2023-05-27T06:22:35;12.00;99.90
18577;DHT22;9418;52.694;13.294;2023-05-27T06:25:02;12.10;99.90
18577;DHT22;9418;52.694;13.294;2023-05-27T06:27:28;12.20;99.90
18577;DHT22;9418;52.694;13.294;2023-05-27T06:29:55;12.30;99.90
18577;DHT22;9418;52.694;13.294;2023-05-27T06:32:24;12.40;99.90
18577;DHT22;9418;52.694;13.294;2023-05-27T06:34:50;12.50;99.90
18577;DHT22;9418;52.694;13.294;2023-05-27T06:37:17;12.60;60.10
18577;DHT22;9418;52.694;13.294;2023-05-27T06:39:44;12.70;87.40
18577;DHT22;9418;52.694;13.294;2023-05-27T06:42:10;12.90;95.00
18577;DHT22;9418;52.694;13.294;2023-05-27T06:44:37;13.10;99.90
18577;DHT22;9418;52.694;13.294;2023-05-27T06:47:04;13.20;99.90
18577;DHT22;9418;52.694;13.294;2023-05-27T06:49:32;13.30;99.90
18577;DHT22;9418;52.694;13.294;2023-05-27T06:51:59;13.30;99.90
18577;DHT22;9418;52.694;13.294;2023-05-27T06:54:25;13.40;99.90
18577;DHT22;9418;52.694;13.294;2023-05-27T06:56:52;13.40;99.90
18577;DHT22;9418;52.694;13.294;2023-05-27T06:59:19;13.50;99.90
18577;DHT22;9418;52.694;13.294;2023-05-27T07:01:45;13.50;99.90
18577;DHT22;9418;52.694;13.294;2023-05-27T07:04:12;13.60;99.90
18577;DHT22;9418;52.694;13.294;2023-05-27T07:06:40;13.70;99.90
18577;DHT22;9418;52.694;13.294;2023-05-27T07:09:07;13.80;99.90
18577;DHT22;9418;52.694;13.294;2023-05-27T07:11:33;14.00;99.90
18577;DHT22;9418;52.694;13.294;2023-05-27T07:14:00;14.00;99.90
18577;DHT22;9418;52.694;13.294;2023-05-27T07:16:27;14.10;99.90
18577;DHT22;9418;52.694;13.294;2023-05-27T07:18:53;14.10;99.90
18577;DHT22;9418;52.694;13.294;2023-05-27T07:21:20;14.20;99.90
18577;DHT22;9418;52.694;13.294;2023-05-27T07:23:48;14.20;99.90
18577;DHT22;9418;52.694;13.294;2023-05-27T07:26:15;14.30;99.90
18577;DHT22;9418;52.694;13.294;2023-05-27T07:28:41;14.30;99.90
18577;DHT22;9418;52.694;13.294;2023-05-27T07:31:08;14.50;99.90
18577;DHT22;9418;52.694;13.294;2023-05-27T07:33:34;14.50;99.90
18577;DHT22;9418;52.694;13.294;2023-05-27T07:36:01;14.60;99.90
18577;DHT22;9418;52.694;13.294;2023-05-27T07:38:27;14.70;99.90
18577;DHT22;9418;52.694;13.294;2023-05-27T07:40:56;14.90;99.90
18577;DHT22;9418;52.694;13.294;2023-05-27T07:43:22;14.90;99.90
18577;DHT22;9418;52.694;13.294;2023-05-27T07:45:49;15.00;99.90
18577;DHT22;9418;52.694;13.294;2023-05-27T07:48:15;15.00;99.90
18577;DHT22;9418;52.694;13.294;2023-05-27T07:50:42;14.90;99.90
18577;DHT22;9418;52.694;13.294;2023-05-27T07:53:09;15.00;99.90
18577;DHT22;9418;52.694;13.294;2023-05-27T07:55:35;15.10;99.90
18577;DHT22;9418;52.694;13.294;2023-05-27T07:58:03;15.20;99.90
18577;DHT22;9418;52.694;13.294;2023-05-27T08:00:30;15.20;99.90
18577;DHT22;9418;52.694;13.294;2023-05-27T08:02:56;15.30;99.90
18577;DHT22;9418;52.694;13.294;2023-05-27T08:05:23;15.50;99.90
18577;DHT22;9418;52.694;13.294;2023-05-27T08:07:50;15.60;99.90
18577;DHT22;9418;52.694;13.294;2023-05-27T08:10:16;15.70;99.90
18577;DHT22;9418;52.694;13.294;2023-05-27T08:12:43;15.80;99.90
18577;DHT22;9418;52.694;13.294;2023-05-27T08:15:11;15.90;99.90
18577;DHT22;9418;52.694;13.294;2023-05-27T08:17:38;16.00;99.90
18577;DHT22;9418;52.694;13.294;2023-05-27T08:20:05;16.10;99.90
18577;DHT22;9418;52.694;13.294;2023-05-27T08:22:33;16.10;99.90
18577;DHT22;9418;52.694;13.294;2023-05-27T08:25:00;16.10;99.90
18577;DHT22;9418;52.694;13.294;2023-05-27T08:27:42;16.10;99.90
18577;DHT22;9418;52.694;13.294;2023-05-27T08:30:12;16.30;99.90
18577;DHT22;9418;52.694;13.294;2023-05-27T08:32:39;16.30;99.90
18577;DHT22;9418;52.694;13.294;2023-05-27T08:35:06;16.40;99.90
18577;DHT22;9418;52.694;13.294;2023-05-27T08:37:33;16.60;99.90
18577;DHT22;9418;52.694;13.294;2023-05-27T08:40:00;16.80;99.90
18577;DHT22;9418;52.694;13.294;2023-05-27T08:42:29;16.90;99.90
18577;DHT22;9418;52.694;13.294;2023-05-27T08:45:00;17.00;99.90
18577;DHT22;9418;52.694;13.294;2023-05-27T08:47:46;17.10;99.90
18577;DHT22;9418;52.694;13.294;2023-05-27T08:50:14;16.90;99.90
18577;DHT22;9418;52.694;13.294;2023-05-27T08:52:44;17.00;99.90
18577;DHT22;9418;52.694;13.294;2023-05-27T08:55:15;17.20;99.90
18577;DHT22;9418;52.694;13.294;2023-05-27T08:57:45;17.40;99.90
18577;DHT22;9418;52.694;13.294;2023-05-27T09:00:13;17.40;99.90
18577;DHT22;9418;52.694;13.294;2023-05-27T09:02:40;17.50;99.90
18577;DHT22;9418;52.694;13.294;2023-05-27T09:05:09;17.60;99.90
18577;DHT22;9418;52.694;13.294;2023-05-27T09:07:36;17.80;99.90
18577;DHT22;9418;52.694;13.294;2023-05-27T09:10:04;18.00;99.90
18577;DHT22;9418;52.694;13.294;2023-05-27T09:12:31;18.20;99.90
18577;DHT22;9418;52.694;13.294;2023-05-27T09:14:58;18.40;99.90
18577;DHT22;9418;52.694;13.294;2023-05-27T09:17:25;18.60;99.90
18577;DHT22;9418;52.694;13.294;2023-05-27T09:19:53;18.80;99.90
18577;DHT22;9418;52.694;13.294;2023-05-27T09:22:24;18.50;99.90
18577;DHT22;9418;52.694;13.294;2023-05-27T09:24:52;17.90;99.90
18577;DHT22;9418;52.694;13.294;2023-05-27T09:27:24;18.40;99.90
18577;DHT22;9418;52.694;13.294;2023-05-27T09:29:50;18.70;99.90
18577;DHT22;9418;52.694;13.294;2023-05-27T09:32:23;18.90;99.90
18577;DHT22;9418;52.694;13.294;2023-05-27T09:34:51;18.80;99.90
18577;DHT22;9418;52.694;13.294;2023-05-27T09:37:17;19.10;99.90
18577;DHT22;9418;52.694;13.294;2023-05-27T09:39:47;19.10;99.90
18577;DHT22;9418;52.694;13.294;2023-05-27T09:42:14;19.20;99.90
18577;DHT22;9418;52.694;13.294;2023-05-27T09:44:40;19.10;99.90
18577;DHT22;9418;52.694;13.294;2023-05-27T09:47:08;19.40;99.90
18577;DHT22;9418;52.694;13.294;2023-05-27T09:49:37;19.50;99.90
18577;DHT22;9418;52.694;13.294;2023-05-27T09:52:05;19.30;95.90
18577;DHT22;9418;52.694;13.294;2023-05-27T09:54:33;19.70;99.90
18577;DHT22;9418;52.694;13.294;2023-05-27T09:57:03;19.60;99.90
18577;DHT22;9418;52.694;13.294;2023-05-27T09:59:32;19.70;99.90
18577;DHT22;9418;52.694;13.294;2023-05-27T10:02:00;19.00;98.00
18577;DHT22;9418;52.694;13.294;2023-05-27T10:04:28;19.30;91.50
18577;DHT22;9418;52.694;13.294;2023-05-27T10:06:55;19.20;94.30
18577;DHT22;9418;52.694;13.294;2023-05-27T10:09:22;19.80;99.90
18577;DHT22;9418;52.694;13.294;2023-05-27T10:11:49;19.80;99.90
18577;DHT22;9418;52.694;13.294;2023-05-27T10:14:18;20.20;99.90
18577;DHT22;9418;52.694;13.294;2023-05-27T10:16:51;20.60;99.90
18577;DHT22;9418;52.694;13.294;2023-05-27T10:19:19;21.20;88.80
18577;DHT22;9418;52.694;13.294;2023-05-27T10:21:45;22.00;20.60
18577;DHT22;9418;52.694;13.294;2023-05-27T10:24:12;21.90;20.90
18577;DHT22;9418;52.694;13.294;2023-05-27T10:26:40;21.60;27.20
18577;DHT22;9418;52.694;13.294;2023-05-27T10:29:09;22.20;22.60
18577;DHT22;9418;52.694;13.294;2023-05-27T10:31:44;22.80;22.90
18577;DHT22;9418;52.694;13.294;2023-05-27T10:34:11;22.70;25.20
18577;DHT22;9418;52.694;13.294;2023-05-27T10:36:38;23.10;25.90
18577;DHT22;9418;52.694;13.294;2023-05-27T10:39:06;23.50;26.40
18577;DHT22;9418;52.694;13.294;2023-05-27T10:41:41;23.50;26.80
18577;DHT22;9418;52.694;13.294;2023-05-27T10:44:08;23.60;24.00
18577;DHT22;9418;52.694;13.294;2023-05-27T10:46:41;22.40;27.00
18577;DHT22;9418;52.694;13.294;2023-05-27T10:49:13;22.50;24.70
18577;DHT22;9418;52.694;13.294;2023-05-27T10:51:40;22.80;25.70
18577;DHT22;9418;52.694;13.294;2023-05-27T10:54:08;23.50;28.50
18577;DHT22;9418;52.694;13.294;2023-05-27T10:56:34;23.70;28.10
18577;DHT22;9418;52.694;13.294;2023-05-27T10:59:01;24.10;25.30
18577;DHT22;9418;52.694;13.294;2023-05-27T11:01:31;24.30;27.90
18577;DHT22;9418;52.694;13.294;2023-05-27T11:03:59;23.30;28.40
18577;DHT22;9418;52.694;13.294;2023-05-27T11:06:26;22.80;23.20
18577;DHT22;9418;52.694;13.294;2023-05-27T11:08:54;22.60;24.20
18577;DHT22;9418;52.694;13.294;2023-05-27T11:11:21;22.60;21.00
18577;DHT22;9418;52.694;13.294;2023-05-27T11:13:48;22.10;23.70
18577;DHT22;9418;52.694;13.294;2023-05-27T11:16:15;21.40;23.70
18577;DHT22;9418;52.694;13.294;2023-05-27T11:18:43;21.50;21.80
18577;DHT22;9418;52.694;13.294;2023-05-27T11:21:13;21.70;20.40
18577;DHT22;9418;52.694;13.294;2023-05-27T11:23:42;21.40;20.40
18577;DHT22;9418;52.694;13.294;2023-05-27T11:26:14;21.50;21.50
18577;DHT22;9418;52.694;13.294;2023-05-27T11:28:48;21.90;22.00
18577;DHT22;9418;52.694;13.294;2023-05-27T11:31:15;22.40;23.20
18577;DHT22;9418;52.694;13.294;2023-05-27T11:33:42;23.00;24.70
18577;DHT22;9418;52.694;13.294;2023-05-27T11:36:13;23.10;23.30
18577;DHT22;9418;52.694;13.294;2023-05-27T11:38:55;22.70;20.80
18577;DHT22;9418;52.694;13.294;2023-05-27T11:41:24;21.80;23.60
18577;DHT22;9418;52.694;13.294;2023-05-27T11:43:55;21.80;72.80
18577;DHT22;9418;52.694;13.294;2023-05-27T11:46:22;21.90;21.90
18577;DHT22;9418;52.694;13.294;2023-05-27T11:48:49;22.20;79.80
18577;DHT22;9418;52.694;13.294;2023-05-27T11:51:17;21.90;23.30
18577;DHT22;9418;52.694;13.294;2023-05-27T11:53:45;22.70;25.00
18577;DHT22;9418;52.694;13.294;2023-05-27T11:56:12;23.00;22.00
18577;DHT22;9418;52.694;13.294;2023-05-27T11:58:38;22.20;25.40
18577;DHT22;9418;52.694;13.294;2023-05-27T12:01:05;23.10;25.20
18577;DHT22;9418;52.694;13.294;2023-05-27T12:03:33;23.20;26.00
18577;DHT22;9418;52.694;13.294;2023-05-27T12:06:00;22.30;27.50
18577;DHT22;9418;52.694;13.294;2023-05-27T12:08:28;23.30;22.80
18577;DHT22;9418;52.694;13.294;2023-05-27T12:10:54;22.60;23.20
18577;DHT22;9418;52.694;13.294;2023-05-27T12:13:21;22.80;23.90
18577;DHT22;9418;52.694;13.294;2023-05-27T12:15:48;22.60;27.00
18577;DHT22;9418;52.694;13.294;2023-05-27T12:18:15;22.20;25.50
18577;DHT22;9418;52.694;13.294;2023-05-27T12:20:43;21.80;23.30
18577;DHT22;9418;52.694;13.294;2023-05-27T12:23:10;21.90;25.80
18577;DHT22;9418;52.694;13.294;2023-05-27T12:25:38;22.00;25.20
18577;DHT22;9418;52.694;13.294;2023-05-27T12:28:06;22.20;21.80
18577;DHT22;9418;52.694;13.294;2023-05-27T12:30:33;22.20;24.40
18577;DHT22;9418;52.694;13.294;2023-05-27T12:33:00;22.40;23.20
18577;DHT22;9418;52.694;13.294;2023-05-27T12:35:27;22.10;25.10
18577;DHT22;9418;52.694;13.294;2023-05-27T12:37:53;22.60;24.80
18577;DHT22;9418;52.694;13.294;2023-05-27T12:40:20;22.60;24.60
18577;DHT22;9418;52.694;13.294;2023-05-27T12:42:48;22.50;24.20
18577;DHT22;9418;52.694;13.294;2023-05-27T12:45:15;23.10;23.70
18577;DHT22;9418;52.694;13.294;2023-05-27T12:47:42;23.10;25.10
18577;DHT22;9418;52.694;13.294;2023-05-27T12:50:09;22.70;26.20
18577;DHT22;9418;52.694;13.294;2023-05-27T12:52:35;23.00;26.70
18577;DHT22;9418;52.694;13.294;2023-05-27T12:55:04;22.30;26.00
18577;DHT22;9418;52.694;13.294;2023-05-27T12:57:31;22.60;25.20
18577;DHT22;9418;52.694;13.294;2023-05-27T12:59:59;22.60;26.50
18577;DHT22;9418;52.694;13.294;2023-05-27T13:02:26;22.30;23.10
18577;DHT22;9418;52.694;13.294;2023-05-27T13:04:52;22.50;22.60
18577;DHT22;9418;52.694;13.294;2023-05-27T13:07:19;22.60;22.20
18577;DHT22;9418;52.694;13.294;2023-05-27T13:09:46;22.70;24.50
18577;DHT22;9418;52.694;13.294;2023-05-27T13:12:12;22.60;26.10
18577;DHT22;9418;52.694;13.294;2023-05-27T13:14:39;22.80;23.80
18577;DHT22;9418;52.694;13.294;2023-05-27T13:17:09;22.60;24.60
18577;DHT22;9418;52.694;13.294;2023-05-27T13:19:36;22.70;23.80
18577;DHT22;9418;52.694;13.294;2023-05-27T13:22:03;22.20;23.80
18577;DHT22;9418;52.694;13.294;2023-05-27T13:24:29;22.00;23.70
18577;DHT22;9418;52.694;13.294;2023-05-27T13:26:56;22.30;23.30
18577;DHT22;9418;52.694;13.294;2023-05-27T13:29:23;22.20;24.50
18577;DHT22;9418;52.694;13.294;2023-05-27T13:31:49;22.20;23.60
18577;DHT22;9418;52.694;13.294;2023-05-27T13:34:17;22.10;23.80
18577;DHT22;9418;52.694;13.294;2023-05-27T13:36:44;22.10;21.80
18577;DHT22;9418;52.694;13.294;2023-05-27T13:39:10;22.30;22.70
18577;DHT22;9418;52.694;13.294;2023-05-27T13:41:37;22.30;24.00
18577;DHT22;9418;52.694;13.294;2023-05-27T13:44:03;22.50;22.20
18577;DHT22;9418;52.694;13.294;2023-05-27T13:46:30;22.40;22.20
18577;DHT22;9418;52.694;13.294;2023-05-27T13:48:57;22.70;24.20
18577;DHT22;9418;52.694;13.294;2023-05-27T13:51:25;23.10;22.50
18577;DHT22;9418;52.694;13.294;2023-05-27T13:53:51;23.10;22.10
18577;DHT22;9418;52.694;13.294;2023-05-27T13:56:18;22.70;23.60
18577;DHT22;9418;52.694;13.294;2023-05-27T13:58:46;22.70;22.00
18577;DHT22;9418;52.694;13.294;2023-05-27T14:01:12;22.70;23.10
18577;DHT22;9418;52.694;13.294;2023-05-27T14:03:39;22.40;23.50
18577;DHT22;9418;52.694;13.294;2023-05-27T14:06:06;22.80;21.40
18577;DHT22;9418;52.694;13.294;2023-05-27T14:08:34;22.60;21.60
18577;DHT22;9418;52.694;13.294;2023-05-27T14:11:01;22.70;22.10
18577;DHT22;9418;52.694;13.294;2023-05-27T14:13:28;22.20;21.60
18577;DHT22;9418;52.694;13.294;2023-05-27T14:15:54;22.80;21.20
18577;DHT22;9418;52.694;13.294;2023-05-27T14:18:21;21.90;22.70
18577;DHT22;9418;52.694;13.294;2023-05-27T14:20:48;22.10;20.90
18577;DHT22;9418;52.694;13.294;2023-05-27T14:23:16;22.30;21.90
18577;DHT22;9418;52.694;13.294;2023-05-27T14:25:44;22.60;20.50
18577;DHT22;9418;52.694;13.294;2023-05-27T14:28:10;22.80;22.00
18577;DHT22;9418;52.694;13.294;2023-05-27T14:30:37;22.60;21.20
18577;DHT22;9418;52.694;13.294;2023-05-27T14:33:04;22.60;20.60
18577;DHT22;9418;52.694;13.294;2023-05-27T14:35:32;22.60;20.60
18577;DHT22;9418;52.694;13.294;2023-05-27T14:38:00;22.40;21.00
18577;DHT22;9418;52.694;13.294;2023-05-27T14:40:27;22.40;76.00
18577;DHT22;9418;52.694;13.294;2023-05-27T14:42:55;22.40;80.60
18577;DHT22;9418;52.694;13.294;2023-05-27T14:45:22;22.70;21.10
18577;DHT22;9418;52.694;13.294;2023-05-27T14:47:48;22.70;21.50
18577;DHT22;9418;52.694;13.294;2023-05-27T14:50:16;22.50;24.00
18577;DHT22;9418;52.694;13.294;2023-05-27T14:52:43;22.80;23.20
18577;DHT22;9418;52.694;13.294;2023-05-27T14:55:09;23.00;21.40
18577;DHT22;9418;52.694;13.294;2023-05-27T14:57:36;23.10;23.90
18577;DHT22;9418;52.694;13.294;2023-05-27T15:00:05;23.30;20.50
18577;DHT22;9418;52.694;13.294;2023-05-27T15:02:33;23.50;23.30
18577;DHT22;9418;52.694;13.294;2023-05-27T15:05:01;23.10;26.20
18577;DHT22;9418;52.694;13.294;2023-05-27T15:07:28;23.40;24.70
18577;DHT22;9418;52.694;13.294;2023-05-27T15:09:55;23.30;26.80
18577;DHT22;9418;52.694;13.294;2023-05-27T15:12:21;23.00;25.90
18577;DHT22;9418;52.694;13.294;2023-05-27T15:14:48;23.30;25.70
18577;DHT22;9418;52.694;13.294;2023-05-27T15:17:16;23.20;22.40
18577;DHT22;9418;52.694;13.294;2023-05-27T15:19:43;22.80;26.30
18577;DHT22;9418;52.694;13.294;2023-05-27T15:22:09;22.40;25.60
18577;DHT22;9418;52.694;13.294;2023-05-27T15:24:36;22.50;25.20
18577;DHT22;9418;52.694;13.294;2023-05-27T15:27:03;22.80;22.80
18577;DHT22;9418;52.694;13.294;2023-05-27T15:29:30;22.80;24.30
18577;DHT22;9418;52.694;13.294;2023-05-27T15:31:57;22.60;25.90
18577;DHT22;9418;52.694;13.294;2023-05-27T15:34:25;22.40;25.60
18577;DHT22;9418;52.694;13.294;2023-05-27T15:36:51;22.70;24.80
18577;DHT22;9418;52.694;13.294;2023-05-27T15:39:19;22.40;25.70